createdAt,value
2019-02-11T00:00:03.844Z,984.96
2019-02-11T00:01:03.832Z,984.98
2019-02-11T00:02:03.847Z,985.07
2019-02-11T00:03:03.813Z,985.11
2019-02-11T00:04:03.803Z,985.17
2019-02-11T00:05:03.796Z,985.18
2019-02-11T00:06:03.767Z,985.20
2019-02-11T00:07:03.789Z,985.20
2019-02-11T00:08:03.744Z,985.34
2019-02-11T00:09:03.751Z,985.34
2019-02-11T00:10:03.733Z,985.32
2019-02-11T00:11:03.722Z,985.34
2019-02-11T00:12:03.751Z,985.42
2019-02-11T00:13:10.385Z,985.53
2019-02-11T00:14:04.694Z,985.39
2019-02-11T00:15:03.681Z,985.46
2019-02-11T00:16:03.668Z,985.45
2019-02-11T00:17:03.691Z,985.50
2019-02-11T00:18:03.656Z,985.48
2019-02-11T00:19:03.639Z,985.53
2019-02-11T00:20:03.648Z,985.55
2019-02-11T00:21:03.619Z,985.55
2019-02-11T00:22:03.637Z,985.58
2019-02-11T00:23:03.618Z,985.64
2019-02-11T00:24:03.587Z,985.69
2019-02-11T00:25:03.578Z,985.74
2019-02-11T00:26:03.562Z,985.75
2019-02-11T00:27:03.557Z,985.79
2019-02-11T00:28:03.570Z,985.85
2019-02-11T00:29:03.529Z,985.91
2019-02-11T00:30:03.526Z,985.97
2019-02-11T00:31:03.506Z,985.91
2019-02-11T00:32:03.506Z,985.85
2019-02-11T00:33:03.518Z,985.90
2019-02-11T00:34:03.479Z,985.77
2019-02-11T00:35:03.463Z,986.06
2019-02-11T00:36:03.469Z,986.00
2019-02-11T00:37:03.440Z,986.01
2019-02-11T00:38:03.458Z,986.07
2019-02-11T00:39:03.423Z,986.26
2019-02-11T00:40:03.419Z,986.20
2019-02-11T00:41:03.401Z,986.15
2019-02-11T00:42:03.388Z,986.37
2019-02-11T00:43:03.404Z,986.27
2019-02-11T00:44:03.370Z,986.34
2019-02-11T00:45:03.367Z,986.35
2019-02-11T00:46:03.356Z,986.36
2019-02-11T00:47:14.392Z,986.42
2019-02-11T00:48:03.350Z,986.43
2019-02-11T00:49:03.313Z,986.50
2019-02-11T00:50:03.306Z,986.50
2019-02-11T00:51:03.360Z,986.61
2019-02-11T00:52:03.281Z,986.61
2019-02-11T00:53:03.319Z,986.66
2019-02-11T00:54:03.257Z,986.69
2019-02-11T00:55:03.293Z,986.81
2019-02-11T00:56:03.256Z,986.75
2019-02-11T00:57:03.262Z,986.77
2019-02-11T00:58:03.244Z,986.76
2019-02-11T00:59:03.204Z,986.85
2019-02-11T01:00:03.207Z,986.82
2019-02-11T01:01:03.197Z,986.95
2019-02-11T01:02:03.175Z,986.96
2019-02-11T01:03:03.202Z,986.96
2019-02-11T01:04:03.158Z,987.03
2019-02-11T01:05:03.154Z,986.98
2019-02-11T01:06:03.138Z,987.00
2019-02-11T01:07:03.131Z,987.08
2019-02-11T01:08:03.151Z,987.02
2019-02-11T01:09:03.111Z,987.17
2019-02-11T01:10:03.100Z,987.21
2019-02-11T01:11:03.093Z,987.07
2019-02-11T01:12:03.081Z,987.13
2019-02-11T01:13:03.097Z,987.15
2019-02-11T01:14:03.058Z,987.20
2019-02-11T01:15:03.052Z,987.25
2019-02-11T01:16:03.034Z,987.18
2019-02-11T01:17:03.025Z,987.30
2019-02-11T01:18:03.049Z,987.25
2019-02-11T01:19:03.004Z,987.30
2019-02-11T01:20:02.988Z,987.33
2019-02-11T01:21:02.987Z,987.34
2019-02-11T01:22:02.970Z,987.32
2019-02-11T01:23:11.556Z,987.36
2019-02-11T01:24:03.016Z,987.33
2019-02-11T01:25:02.955Z,987.43
2019-02-11T01:26:02.931Z,987.47
2019-02-11T01:27:02.930Z,987.45
2019-02-11T01:28:02.937Z,987.53
2019-02-11T01:29:02.920Z,987.51
2019-02-11T01:30:02.909Z,987.60
2019-02-11T01:31:02.895Z,987.57
2019-02-11T01:32:02.884Z,987.57
2019-02-11T01:33:02.886Z,987.62
2019-02-11T01:34:02.861Z,987.66
2019-02-11T01:35:02.836Z,987.70
2019-02-11T01:36:02.939Z,987.68
2019-02-11T01:37:02.819Z,987.76
2019-02-11T01:38:02.837Z,987.69
2019-02-11T01:39:02.788Z,987.78
2019-02-11T01:40:02.791Z,987.81
2019-02-11T01:41:02.781Z,987.79
2019-02-11T01:42:17.427Z,987.90
2019-02-11T01:43:02.881Z,987.94
2019-02-11T01:44:02.798Z,987.89
2019-02-11T01:45:02.827Z,987.88
2019-02-11T01:46:02.772Z,987.92
2019-02-11T01:47:02.826Z,988.00
2019-02-11T01:48:02.739Z,988.00
2019-02-11T01:49:02.702Z,987.99
2019-02-11T01:50:02.715Z,987.99
2019-02-11T01:51:02.696Z,987.99
2019-02-11T01:52:02.651Z,987.95
2019-02-11T01:53:02.663Z,988.06
2019-02-11T01:54:02.626Z,988.05
2019-02-11T01:55:02.618Z,988.01
2019-02-11T01:56:02.613Z,988.03
2019-02-11T01:57:02.594Z,988.06
2019-02-11T01:58:02.631Z,988.08
2019-02-11T01:59:02.581Z,988.10
2019-02-11T02:00:02.572Z,988.17
2019-02-11T02:01:02.547Z,988.16
2019-02-11T02:02:02.539Z,988.15
2019-02-11T02:03:02.575Z,988.16
2019-02-11T02:04:02.508Z,988.20
2019-02-11T02:05:02.517Z,988.27
2019-02-11T02:06:02.504Z,988.22
2019-02-11T02:07:02.492Z,988.38
2019-02-11T02:08:02.498Z,988.29
2019-02-11T02:09:02.457Z,988.34
2019-02-11T02:10:02.443Z,988.32
2019-02-11T02:11:02.441Z,988.33
2019-02-11T02:12:02.439Z,987.81
2019-02-11T02:13:02.457Z,988.44
2019-02-11T02:14:02.426Z,988.48
2019-02-11T02:15:02.397Z,988.46
2019-02-11T02:16:02.390Z,988.44
2019-02-11T02:17:02.383Z,988.50
2019-02-11T02:18:02.372Z,988.51
2019-02-11T02:19:02.390Z,988.56
2019-02-11T02:20:02.341Z,988.55
2019-02-11T02:21:02.346Z,988.55
2019-02-11T02:22:02.330Z,988.63
2019-02-11T02:23:02.318Z,988.61
2019-02-11T02:24:02.324Z,988.62
2019-02-11T02:25:02.297Z,988.42
2019-02-11T02:26:02.285Z,988.69
2019-02-11T02:27:02.272Z,988.65
2019-02-11T02:28:02.262Z,988.69
2019-02-11T02:29:02.393Z,988.70
2019-02-11T02:30:02.392Z,988.75
2019-02-11T02:31:02.318Z,988.71
2019-02-11T02:32:02.284Z,988.60
2019-02-11T02:33:02.334Z,988.68
2019-02-11T02:34:02.339Z,988.73
2019-02-11T02:35:02.184Z,988.65
2019-02-11T02:36:02.170Z,988.74
2019-02-11T02:37:02.165Z,988.65
2019-02-11T02:38:02.151Z,988.81
2019-02-11T02:39:02.175Z,988.73
2019-02-11T02:40:02.140Z,988.84
2019-02-11T02:41:02.118Z,988.86
2019-02-11T02:42:02.116Z,988.82
2019-02-11T02:43:02.094Z,988.75
2019-02-11T02:44:02.121Z,988.80
2019-02-11T02:45:02.076Z,988.79
2019-02-11T02:46:02.069Z,988.76
2019-02-11T02:47:02.049Z,988.78
2019-02-11T02:48:02.050Z,988.66
2019-02-11T02:49:02.066Z,988.84
2019-02-11T02:50:02.031Z,988.79
2019-02-11T02:51:02.016Z,988.90
2019-02-11T02:52:02.011Z,988.90
2019-02-11T02:53:12.912Z,988.85
2019-02-11T02:54:01.995Z,988.81
2019-02-11T02:55:01.967Z,988.93
2019-02-11T02:56:01.940Z,988.96
2019-02-11T02:57:01.927Z,988.77
2019-02-11T02:58:01.917Z,989.01
2019-02-11T02:59:01.930Z,989.02
2019-02-11T03:00:01.906Z,989.00
2019-02-11T03:01:01.887Z,989.02
2019-02-11T03:02:01.874Z,988.98
2019-02-11T03:03:01.865Z,989.02
2019-02-11T03:04:01.880Z,989.15
2019-02-11T03:05:01.843Z,989.14
2019-02-11T03:06:01.834Z,989.17
2019-02-11T03:07:01.817Z,989.11
2019-02-11T03:08:01.809Z,989.14
2019-02-11T03:09:01.831Z,989.17
2019-02-11T03:10:01.793Z,989.15
2019-02-11T03:11:01.780Z,989.23
2019-02-11T03:12:01.766Z,989.29
2019-02-11T03:13:01.756Z,989.35
2019-02-11T03:14:05.731Z,989.26
2019-02-11T03:15:01.768Z,989.25
2019-02-11T03:16:01.722Z,989.28
2019-02-11T03:17:01.720Z,989.33
2019-02-11T03:18:01.701Z,989.33
2019-02-11T03:19:01.725Z,989.38
2019-02-11T03:20:01.683Z,989.42
2019-02-11T03:21:01.674Z,989.29
2019-02-11T03:22:01.665Z,989.36
2019-02-11T03:23:01.651Z,989.43
2019-02-11T03:24:01.673Z,989.41
2019-02-11T03:25:01.633Z,989.46
2019-02-11T03:26:01.621Z,989.44
2019-02-11T03:27:01.612Z,989.39
2019-02-11T03:28:01.592Z,989.53
2019-02-11T03:29:01.610Z,989.37
2019-02-11T03:30:01.574Z,989.44
2019-02-11T03:31:01.561Z,989.49
2019-02-11T03:32:01.557Z,989.56
2019-02-11T03:33:01.548Z,989.61
2019-02-11T03:34:01.561Z,989.58
2019-02-11T03:35:01.524Z,989.62
2019-02-11T03:36:01.561Z,989.64
2019-02-11T03:37:01.496Z,989.59
2019-02-11T03:38:01.489Z,989.63
2019-02-11T03:39:01.505Z,989.73
2019-02-11T03:40:01.461Z,989.65
2019-02-11T03:41:01.452Z,989.68
2019-02-11T03:42:01.450Z,989.63
2019-02-11T03:43:01.432Z,989.74
2019-02-11T03:44:01.445Z,989.82
2019-02-11T03:45:01.414Z,989.80
2019-02-11T03:46:01.398Z,989.80
2019-02-11T03:47:01.390Z,989.82
2019-02-11T03:48:01.381Z,989.77
2019-02-11T03:49:01.392Z,989.64
2019-02-11T03:50:01.366Z,989.71
2019-02-11T03:51:01.344Z,989.78
2019-02-11T03:52:01.338Z,989.89
2019-02-11T03:53:01.331Z,989.83
2019-02-11T03:54:01.354Z,989.92
2019-02-11T03:55:01.305Z,989.78
2019-02-11T03:56:01.291Z,989.96
2019-02-11T03:57:01.292Z,990.01
2019-02-11T03:58:01.273Z,990.04
2019-02-11T03:59:01.256Z,990.01
2019-02-11T04:00:01.278Z,990.04
2019-02-11T04:01:01.243Z,990.04
2019-02-11T04:02:01.226Z,990.13
2019-02-11T04:03:01.217Z,990.23
2019-02-11T04:04:01.207Z,990.31
2019-02-11T04:05:01.223Z,990.40
2019-02-11T04:06:01.186Z,990.19
2019-02-11T04:07:01.177Z,989.49
2019-02-11T04:08:01.164Z,990.15
2019-02-11T04:09:01.152Z,989.95
2019-02-11T04:10:01.170Z,990.32
2019-02-11T04:11:01.128Z,990.27
2019-02-11T04:12:01.123Z,989.74
2019-02-11T04:13:01.120Z,990.53
2019-02-11T04:14:01.097Z,990.23
2019-02-11T04:15:01.120Z,990.32
2019-02-11T04:16:01.078Z,990.61
2019-02-11T04:17:01.067Z,990.55
2019-02-11T04:18:01.056Z,990.62
2019-02-11T04:19:01.052Z,990.63
2019-02-11T04:20:01.063Z,990.59
2019-02-11T04:21:01.023Z,990.63
2019-02-11T04:22:01.016Z,990.67
2019-02-11T04:23:01.009Z,990.83
2019-02-11T04:24:00.996Z,990.85
2019-02-11T04:25:01.019Z,990.88
2019-02-11T04:26:00.968Z,990.85
2019-02-11T04:27:00.969Z,990.86
2019-02-11T04:28:00.950Z,990.83
2019-02-11T04:29:00.944Z,990.84
2019-02-11T04:30:00.970Z,990.86
2019-02-11T04:31:00.919Z,990.91
2019-02-11T04:32:00.906Z,990.96
2019-02-11T04:33:00.901Z,990.90
2019-02-11T04:34:00.887Z,991.00
2019-02-11T04:35:00.901Z,990.99
2019-02-11T04:36:00.876Z,991.01
2019-02-11T04:37:00.910Z,991.05
2019-02-11T04:38:00.848Z,991.11
2019-02-11T04:39:00.879Z,991.16
2019-02-11T04:40:00.934Z,991.15
2019-02-11T04:41:00.823Z,991.15
2019-02-11T04:42:00.807Z,991.14
2019-02-11T04:43:00.864Z,991.23
2019-02-11T04:44:00.778Z,991.10
2019-02-11T04:45:00.801Z,991.25
2019-02-11T04:46:00.756Z,991.14
2019-02-11T04:47:00.746Z,991.28
2019-02-11T04:48:00.745Z,991.27
2019-02-11T04:49:00.734Z,991.25
2019-02-11T04:50:00.753Z,991.42
2019-02-11T04:51:00.704Z,991.33
2019-02-11T04:52:00.701Z,991.27
2019-02-11T04:53:00.681Z,991.30
2019-02-11T04:54:00.833Z,991.36
2019-02-11T04:55:00.684Z,991.33
2019-02-11T04:56:00.649Z,991.36
2019-02-11T04:57:00.640Z,991.37
2019-02-11T04:58:00.628Z,991.43
2019-02-11T04:59:00.626Z,991.50
2019-02-11T05:00:00.634Z,991.44
2019-02-11T05:01:00.598Z,991.59
2019-02-11T05:02:00.586Z,991.51
2019-02-11T05:03:00.585Z,991.67
2019-02-11T05:04:00.567Z,991.66
2019-02-11T05:05:00.596Z,991.55
2019-02-11T05:06:00.549Z,991.58
2019-02-11T05:07:00.535Z,991.68
2019-02-11T05:08:00.523Z,991.59
2019-02-11T05:09:00.517Z,991.73
2019-02-11T05:10:00.504Z,991.53
2019-02-11T05:11:00.522Z,991.71
2019-02-11T05:12:00.482Z,991.72
2019-02-11T05:13:00.473Z,991.67
2019-02-11T05:14:00.461Z,991.78
2019-02-11T05:15:00.444Z,991.84
2019-02-11T05:16:00.466Z,991.94
2019-02-11T05:17:00.433Z,991.82
2019-02-11T05:18:00.415Z,991.94
2019-02-11T05:19:00.404Z,991.75
2019-02-11T05:20:00.395Z,991.93
2019-02-11T05:21:00.414Z,992.03
2019-02-11T05:22:00.372Z,991.98
2019-02-11T05:23:00.363Z,992.01
2019-02-11T05:24:00.349Z,991.94
2019-02-11T05:25:00.426Z,991.72
2019-02-11T05:26:00.359Z,992.03
2019-02-11T05:27:00.319Z,992.07
2019-02-11T05:28:00.317Z,992.12
2019-02-11T05:29:00.293Z,992.13
2019-02-11T05:30:00.316Z,992.14
2019-02-11T05:31:00.525Z,992.04
2019-02-11T05:32:00.273Z,992.12
2019-02-11T05:33:00.439Z,992.20
2019-02-11T05:34:00.252Z,991.91
2019-02-11T05:35:00.341Z,992.17
2019-02-11T05:36:00.263Z,992.14
2019-02-11T05:37:00.211Z,992.16
2019-02-11T05:38:00.200Z,992.17
2019-02-11T05:39:00.196Z,992.09
2019-02-11T05:40:00.300Z,992.16
2019-02-11T05:41:00.191Z,992.06
2019-02-11T05:42:00.159Z,992.16
2019-02-11T05:43:00.141Z,992.20
2019-02-11T05:44:00.135Z,992.22
2019-02-11T05:45:00.248Z,992.26
2019-02-11T05:46:00.141Z,992.35
2019-02-11T05:47:00.104Z,992.33
2019-02-11T05:48:00.096Z,992.33
2019-02-11T05:49:00.080Z,992.34
2019-02-11T05:50:00.203Z,992.34
2019-02-11T05:51:00.084Z,992.33
2019-02-11T05:52:00.046Z,992.34
2019-02-11T05:53:00.036Z,992.37
2019-02-11T05:54:00.024Z,992.35
2019-02-11T05:55:00.016Z,992.44
2019-02-11T05:56:00.254Z,992.38
2019-02-11T05:57:00.002Z,992.30
2019-02-11T05:57:59.984Z,992.44
2019-02-11T05:58:59.976Z,992.56
2019-02-11T05:59:59.969Z,992.57
2019-02-11T06:00:59.988Z,992.56
2019-02-11T06:01:59.943Z,992.56
2019-02-11T06:02:59.929Z,992.49
2019-02-11T06:03:59.918Z,992.47
2019-02-11T06:04:59.913Z,992.52
2019-02-11T06:05:59.922Z,992.57
2019-02-11T06:06:59.888Z,992.69
2019-02-11T06:07:59.877Z,992.64
2019-02-11T06:08:59.866Z,992.70
2019-02-11T06:09:59.873Z,992.70
2019-02-11T06:10:59.872Z,992.67
2019-02-11T06:11:59.836Z,992.68
2019-02-11T06:12:59.829Z,992.70
2019-02-11T06:13:59.822Z,992.74
2019-02-11T06:15:04.197Z,992.77
2019-02-11T06:16:00.837Z,992.82
2019-02-11T06:16:59.787Z,992.92
2019-02-11T06:17:59.769Z,992.90
2019-02-11T06:18:59.764Z,992.76
2019-02-11T06:19:59.754Z,992.73
2019-02-11T06:20:59.739Z,992.91
2019-02-11T06:21:59.755Z,992.97
2019-02-11T06:22:59.716Z,992.99
2019-02-11T06:23:59.706Z,993.08
2019-02-11T06:24:59.697Z,993.09
2019-02-11T06:25:59.698Z,993.15
2019-02-11T06:26:59.704Z,993.18
2019-02-11T06:27:59.664Z,993.20
2019-02-11T06:28:59.657Z,993.27
2019-02-11T06:29:59.644Z,993.23
2019-02-11T06:30:59.634Z,993.14
2019-02-11T06:31:59.647Z,993.31
2019-02-11T06:32:59.614Z,993.28
2019-02-11T06:33:59.601Z,993.22
2019-02-11T06:34:59.592Z,993.32
2019-02-11T06:35:59.580Z,993.25
2019-02-11T06:36:59.601Z,993.35
2019-02-11T06:37:59.559Z,993.45
2019-02-11T06:38:59.550Z,993.37
2019-02-11T06:39:59.542Z,993.36
2019-02-11T06:40:59.525Z,993.40
2019-02-11T06:41:59.550Z,993.39
2019-02-11T06:42:59.508Z,993.49
2019-02-11T06:43:59.493Z,993.53
2019-02-11T06:44:59.486Z,993.54
2019-02-11T06:45:59.474Z,993.55
2019-02-11T06:46:59.494Z,993.62
2019-02-11T06:47:59.458Z,993.66
2019-02-11T06:48:59.444Z,993.74
2019-02-11T06:49:59.430Z,993.82
2019-02-11T06:50:59.429Z,993.89
2019-02-11T06:51:59.435Z,993.96
2019-02-11T06:52:59.400Z,993.99
2019-02-11T06:53:59.388Z,993.92
2019-02-11T06:54:59.387Z,994.04
2019-02-11T06:55:59.369Z,993.88
2019-02-11T06:56:59.388Z,994.05
2019-02-11T06:57:59.350Z,993.98
2019-02-11T06:58:59.336Z,994.06
2019-02-11T06:59:59.324Z,994.06
2019-02-11T07:00:59.317Z,994.13
2019-02-11T07:01:59.331Z,994.12
2019-02-11T07:02:59.294Z,993.78
2019-02-11T07:03:59.289Z,994.11
2019-02-11T07:04:59.272Z,994.21
2019-02-11T07:05:59.266Z,994.22
2019-02-11T07:06:59.272Z,994.27
2019-02-11T07:07:59.236Z,994.25
2019-02-11T07:08:59.224Z,994.30
2019-02-11T07:09:59.217Z,994.35
2019-02-11T07:10:59.204Z,994.36
2019-02-11T07:11:59.220Z,994.28
2019-02-11T07:12:59.183Z,994.46
2019-02-11T07:13:59.194Z,994.44
2019-02-11T07:14:59.168Z,994.45
2019-02-11T07:15:59.151Z,994.39
2019-02-11T07:16:59.163Z,994.44
2019-02-11T07:17:59.131Z,994.43
2019-02-11T07:18:59.118Z,994.39
2019-02-11T07:19:59.106Z,994.38
2019-02-11T07:20:59.100Z,994.47
2019-02-11T07:21:59.120Z,994.54
2019-02-11T07:22:59.075Z,994.57
2019-02-11T07:23:59.066Z,994.58
2019-02-11T07:24:59.059Z,994.68
2019-02-11T07:25:59.059Z,994.77
2019-02-11T07:26:59.055Z,994.68
2019-02-11T07:27:59.024Z,994.73
2019-02-11T07:28:59.058Z,994.72
2019-02-11T07:29:59.004Z,994.65
2019-02-11T07:30:58.984Z,994.68
2019-02-11T07:31:59.001Z,994.75
2019-02-11T07:32:58.968Z,994.71
2019-02-11T07:33:58.960Z,994.82
2019-02-11T07:34:58.951Z,994.89
2019-02-11T07:35:58.936Z,994.82
2019-02-11T07:36:58.953Z,994.92
2019-02-11T07:37:58.923Z,994.84
2019-02-11T07:38:58.906Z,994.96
2019-02-11T07:39:58.895Z,994.91
2019-02-11T07:40:58.886Z,994.88
2019-02-11T07:41:58.914Z,994.89
2019-02-11T07:42:58.857Z,994.96
2019-02-11T07:43:58.873Z,994.95
2019-02-11T07:44:58.839Z,994.96
2019-02-11T07:45:58.826Z,994.83
2019-02-11T07:46:58.818Z,995.00
2019-02-11T07:47:58.832Z,995.06
2019-02-11T07:48:58.797Z,995.02
2019-02-11T07:49:58.784Z,995.00
2019-02-11T07:50:58.779Z,995.16
2019-02-11T07:51:58.765Z,995.04
2019-02-11T07:52:58.782Z,995.11
2019-02-11T07:53:58.741Z,995.16
2019-02-11T07:54:58.728Z,995.22
2019-02-11T07:55:58.718Z,995.25
2019-02-11T07:56:58.711Z,995.24
2019-02-11T07:57:58.726Z,995.25
2019-02-11T07:58:58.688Z,995.27
2019-02-11T07:59:58.672Z,995.29
2019-02-11T08:00:58.666Z,995.41
2019-02-11T08:01:58.653Z,995.29
2019-02-11T08:02:58.674Z,995.36
2019-02-11T08:03:58.639Z,995.35
2019-02-11T08:04:58.624Z,995.31
2019-02-11T08:05:58.610Z,995.42
2019-02-11T08:06:58.605Z,995.39
2019-02-11T08:07:58.618Z,995.50
2019-02-11T08:08:58.578Z,995.46
2019-02-11T08:09:58.577Z,995.36
2019-02-11T08:10:58.554Z,995.51
2019-02-11T08:12:00.324Z,995.46
2019-02-11T08:12:58.564Z,995.52
2019-02-11T08:13:58.527Z,995.51
2019-02-11T08:14:58.509Z,995.54
2019-02-11T08:15:58.507Z,995.59
2019-02-11T08:16:58.504Z,995.58
2019-02-11T08:17:58.515Z,995.43
2019-02-11T08:18:58.468Z,995.54
2019-02-11T08:19:58.459Z,995.58
2019-02-11T08:20:58.448Z,995.57
2019-02-11T08:21:58.440Z,995.59
2019-02-11T08:22:58.456Z,995.66
2019-02-11T08:23:58.420Z,995.66
2019-02-11T08:24:58.406Z,995.68
2019-02-11T08:25:58.400Z,995.68
2019-02-11T08:26:58.385Z,995.70
2019-02-11T08:27:58.399Z,995.79
2019-02-11T08:28:58.363Z,995.75
2019-02-11T08:29:58.348Z,995.77
2019-02-11T08:30:58.341Z,995.76
2019-02-11T08:31:58.331Z,995.73
2019-02-11T08:32:58.344Z,995.74
2019-02-11T08:33:58.338Z,995.87
2019-02-11T08:34:58.292Z,995.91
2019-02-11T08:35:58.288Z,995.90
2019-02-11T08:36:58.276Z,995.86
2019-02-11T08:37:58.290Z,995.86
2019-02-11T08:38:58.260Z,995.93
2019-02-11T08:39:58.243Z,995.93
2019-02-11T08:40:58.233Z,995.94
2019-02-11T08:41:58.219Z,995.94
2019-02-11T08:42:58.244Z,996.00
2019-02-11T08:43:58.358Z,996.07
2019-02-11T08:44:58.203Z,996.01
2019-02-11T08:45:58.183Z,996.05
2019-02-11T08:46:58.168Z,995.75
2019-02-11T08:47:58.188Z,996.18
2019-02-11T08:48:58.148Z,996.19
2019-02-11T08:49:58.140Z,996.13
2019-02-11T08:50:58.124Z,996.19
2019-02-11T08:51:58.116Z,996.09
2019-02-11T08:53:07.489Z,996.20
2019-02-11T08:53:58.096Z,996.27
2019-02-11T08:54:58.081Z,996.26
2019-02-11T08:55:58.073Z,996.22
2019-02-11T08:56:58.065Z,996.11
2019-02-11T08:57:58.074Z,996.25
2019-02-11T08:58:58.043Z,996.31
2019-02-11T08:59:58.033Z,996.23
2019-02-11T09:00:58.015Z,996.34
2019-02-11T09:01:58.012Z,996.29
2019-02-11T09:02:58.066Z,996.28
2019-02-11T09:03:58.001Z,996.38
2019-02-11T09:04:57.983Z,996.23
2019-02-11T09:05:57.977Z,996.39
2019-02-11T09:06:57.974Z,996.38
2019-02-11T09:07:57.998Z,996.42
2019-02-11T09:08:57.945Z,996.37
2019-02-11T09:09:57.942Z,996.34
2019-02-11T09:10:57.934Z,996.36
2019-02-11T09:11:57.918Z,996.36
2019-02-11T09:12:57.933Z,996.34
2019-02-11T09:13:57.923Z,996.46
2019-02-11T09:14:57.883Z,996.55
2019-02-11T09:15:57.877Z,996.53
2019-02-11T09:16:57.863Z,996.55
2019-02-11T09:17:57.874Z,996.45
2019-02-11T09:18:57.875Z,996.55
2019-02-11T09:19:57.867Z,996.50
2019-02-11T09:20:57.823Z,996.49
2019-02-11T09:21:57.825Z,996.55
2019-02-11T09:22:57.795Z,996.80
2019-02-11T09:23:57.812Z,996.61
2019-02-11T09:24:57.781Z,996.64
2019-02-11T09:25:57.765Z,996.75
2019-02-11T09:27:05.504Z,996.83
2019-02-11T09:27:57.730Z,996.77
2019-02-11T09:28:57.747Z,996.86
2019-02-11T09:29:57.712Z,996.78
2019-02-11T09:30:57.696Z,996.87
2019-02-11T09:31:57.682Z,996.81
2019-02-11T09:32:57.673Z,996.87
2019-02-11T09:33:57.694Z,996.98
2019-02-11T09:34:57.663Z,996.94
2019-02-11T09:35:57.641Z,996.67
2019-02-11T09:36:57.634Z,996.81
2019-02-11T09:37:57.624Z,997.06
2019-02-11T09:38:57.652Z,997.10
2019-02-11T09:39:57.611Z,997.00
2019-02-11T09:40:57.613Z,997.06
2019-02-11T09:41:57.869Z,997.16
2019-02-11T09:42:57.581Z,996.99
2019-02-11T09:43:57.589Z,996.96
2019-02-11T09:44:57.556Z,997.19
2019-02-11T09:46:03.695Z,997.10
2019-02-11T09:46:58.567Z,997.10
2019-02-11T09:47:57.529Z,997.09
2019-02-11T09:48:57.563Z,997.18
2019-02-11T09:49:57.509Z,997.14
2019-02-11T09:50:57.499Z,996.57
2019-02-11T09:51:57.497Z,997.13
2019-02-11T09:52:57.470Z,997.27
2019-02-11T09:53:57.520Z,997.28
2019-02-11T09:54:57.464Z,997.33
2019-02-11T09:55:57.455Z,997.32
2019-02-11T09:56:57.457Z,997.36
2019-02-11T09:57:57.431Z,997.32
2019-02-11T09:58:57.452Z,997.38
2019-02-11T09:59:57.399Z,997.33
2019-02-11T10:00:57.414Z,997.21
2019-02-11T10:01:57.395Z,997.43
2019-02-11T10:02:57.383Z,997.60
2019-02-11T10:03:57.387Z,997.60
2019-02-11T10:04:57.342Z,997.56
2019-02-11T10:05:57.345Z,997.56
2019-02-11T10:06:57.326Z,997.46
2019-02-11T10:07:57.319Z,997.72
2019-02-11T10:08:57.340Z,997.62
2019-02-11T10:09:57.309Z,997.74
2019-02-11T10:10:57.284Z,997.80
2019-02-11T10:11:57.278Z,997.75
2019-02-11T10:12:57.259Z,997.65
2019-02-11T10:13:57.280Z,997.78
2019-02-11T10:14:57.238Z,997.58
2019-02-11T10:15:57.239Z,997.73
2019-02-11T10:16:57.215Z,997.91
2019-02-11T10:17:57.211Z,997.80
2019-02-11T10:18:57.230Z,997.63
2019-02-11T10:19:57.184Z,997.86
2019-02-11T10:20:57.174Z,997.92
2019-02-11T10:21:57.169Z,997.87
2019-02-11T10:22:57.165Z,997.78
2019-02-11T10:23:57.169Z,998.00
2019-02-11T10:24:57.138Z,998.09
2019-02-11T10:25:57.137Z,998.08
2019-02-11T10:26:57.134Z,998.09
2019-02-11T10:27:57.094Z,997.92
2019-02-11T10:28:57.115Z,998.06
2019-02-11T10:29:57.074Z,998.19
2019-02-11T10:30:57.070Z,997.94
2019-02-11T10:31:57.056Z,997.85
2019-02-11T10:32:57.043Z,998.28
2019-02-11T10:33:57.067Z,998.29
2019-02-11T10:34:57.024Z,998.26
2019-02-11T10:35:57.047Z,998.28
2019-02-11T10:36:57.020Z,998.20
2019-02-11T10:37:56.998Z,997.87
2019-02-11T10:38:57.026Z,998.38
2019-02-11T10:39:56.968Z,998.35
2019-02-11T10:40:56.959Z,998.30
2019-02-11T10:41:56.949Z,998.19
2019-02-11T10:42:56.943Z,998.31
2019-02-11T10:43:56.924Z,998.22
2019-02-11T10:44:56.943Z,998.40
2019-02-11T10:45:56.899Z,998.42
2019-02-11T10:46:56.905Z,998.33
2019-02-11T10:47:57.078Z,998.50
2019-02-11T10:48:56.874Z,998.52
2019-02-11T10:49:56.886Z,998.51
2019-02-11T10:50:56.855Z,998.57
2019-02-11T10:51:56.935Z,998.51
2019-02-11T10:52:56.831Z,998.44
2019-02-11T10:53:56.808Z,998.51
2019-02-11T10:54:56.840Z,998.46
2019-02-11T10:55:56.795Z,998.63
2019-02-11T10:56:56.795Z,998.63
2019-02-11T10:57:56.786Z,998.36
2019-02-11T10:58:56.774Z,998.63
2019-02-11T10:59:56.790Z,998.62
2019-02-11T11:00:56.741Z,998.67
2019-02-11T11:01:56.746Z,998.71
2019-02-11T11:02:56.727Z,998.64
2019-02-11T11:03:56.716Z,998.75
2019-02-11T11:04:56.727Z,998.69
2019-02-11T11:05:56.727Z,998.83
2019-02-11T11:06:56.674Z,998.82
2019-02-11T11:07:56.675Z,998.81
2019-02-11T11:08:56.658Z,998.88
2019-02-11T11:09:56.669Z,998.88
2019-02-11T11:10:56.635Z,998.75
2019-02-11T11:11:56.624Z,998.96
2019-02-11T11:12:56.620Z,998.86
2019-02-11T11:13:56.602Z,998.94
2019-02-11T11:14:56.622Z,998.89
2019-02-11T11:15:56.579Z,998.97
2019-02-11T11:16:56.566Z,998.28
2019-02-11T11:17:56.563Z,998.67
2019-02-11T11:18:56.546Z,999.12
2019-02-11T11:19:56.569Z,999.03
2019-02-11T11:20:56.531Z,999.00
2019-02-11T11:21:56.515Z,999.06
2019-02-11T11:22:56.519Z,998.96
2019-02-11T11:23:56.499Z,998.94
2019-02-11T11:24:56.512Z,998.98
2019-02-11T11:25:56.461Z,998.97
2019-02-11T11:26:56.454Z,999.04
2019-02-11T11:27:56.448Z,998.87
2019-02-11T11:28:56.439Z,999.03
2019-02-11T11:29:56.456Z,999.00
2019-02-11T11:30:56.424Z,998.96
2019-02-11T11:31:56.412Z,999.02
2019-02-11T11:32:56.392Z,999.05
2019-02-11T11:33:56.393Z,999.03
2019-02-11T11:34:56.400Z,999.02
2019-02-11T11:35:56.361Z,998.82
2019-02-11T11:36:56.361Z,998.89
2019-02-11T11:37:56.369Z,998.99
2019-02-11T11:38:56.331Z,999.03
2019-02-11T11:39:56.349Z,998.88
2019-02-11T11:40:56.309Z,999.09
2019-02-11T11:41:56.307Z,999.10
2019-02-11T11:42:56.292Z,999.08
2019-02-11T11:43:56.277Z,999.22
2019-02-11T11:44:56.291Z,999.32
2019-02-11T11:45:56.245Z,999.31
2019-02-11T11:46:56.250Z,999.08
2019-02-11T11:47:56.235Z,999.39
2019-02-11T11:48:56.223Z,999.29
2019-02-11T11:49:56.243Z,999.11
2019-02-11T11:50:56.203Z,999.27
2019-02-11T11:51:56.191Z,999.29
2019-02-11T11:52:56.177Z,999.28
2019-02-11T11:53:56.167Z,999.35
2019-02-11T11:54:56.197Z,999.49
2019-02-11T11:55:56.168Z,999.43
2019-02-11T11:56:59.161Z,999.32
2019-02-11T11:57:56.122Z,999.33
2019-02-11T11:58:56.142Z,999.46
2019-02-11T11:59:56.139Z,999.56
2019-02-11T12:00:56.194Z,999.47
2019-02-11T12:01:56.082Z,999.51
2019-02-11T12:03:04.686Z,999.55
2019-02-11T12:03:57.067Z,999.61
2019-02-11T12:04:56.100Z,999.55
2019-02-11T12:05:56.042Z,999.35
2019-02-11T12:06:56.049Z,999.59
2019-02-11T12:07:56.033Z,999.19
2019-02-11T12:08:59.030Z,999.82
2019-02-11T12:09:55.997Z,999.66
2019-02-11T12:10:56.018Z,999.89
2019-02-11T12:11:55.984Z,999.91
2019-02-11T12:12:55.971Z,999.90
2019-02-11T12:13:55.961Z,999.87
2019-02-11T12:14:55.949Z,999.69
2019-02-11T12:15:55.968Z,999.96
2019-02-11T12:17:02.297Z,999.99
2019-02-11T12:17:56.913Z,1000.04
2019-02-11T12:18:55.914Z,1000.07
2019-02-11T12:19:55.892Z,1000.07
2019-02-11T12:20:56.040Z,1000.05
2019-02-11T12:21:55.884Z,1000.07
2019-02-11T12:22:56.052Z,1000.13
2019-02-11T12:23:55.847Z,1000.12
2019-02-11T12:24:55.845Z,1000.05
2019-02-11T12:25:55.862Z,1000.24
2019-02-11T12:26:55.834Z,1000.16
2019-02-11T12:27:55.818Z,1000.35